Poteau, OK (74953)

10:27 AM CST on November 21, 2014 (GMT -0600)
Kerr | Change Station
CLOSE
Current Station
Airport
Location: Poteau,
Elevation: 453 ft
Nearby Weather Stations

Elev 453 ft 35.02 °N, 94.62 °W | Updated 12 minutes ago

Overcast
Overcast
53 °F
Feels Like 53 °F
N
5
Wind Variable Wind from ESE

Today
High -- | Low -- °F
--% Chance of Precip.
Yesterday
High -- | Low -- °F
Precip. -- in
6:58 AM 5:09 PM
Waning Crescent, 1% visible
Pressure 30.20 in
Visibility 10.0 miles
Clouds Overcast 1500 ft
Dew Point 46 °F
Humidity 77%
Rainfall 0.00 in
Snow Depth Not available.
UV 1 out of 12
Pollen 1.40 out of 12
Air Quality Not available.
Flu Activity Not available.
METAR KRKR 211615Z AUTO 11004KT 10SM OVC015 12/08 A3020 RMK AO2 T01150076

More Conditions Fewer Conditions

Pressure 30.20 in
Visibility 10.0 miles
Clouds Overcast 1500 ft
Dew Point 46 °F
Humidity 77%
Rainfall 0.00 in
Snow Depth Not available.
UV 1 out of 12
Pollen 1.40 out of 12
Air Quality Not available.
Flu Activity Not available.
METAR KRKR 211615Z AUTO 11004KT 10SM OVC015 12/08 A3020 RMK AO2 T01150076

More Conditions Fewer Conditions

Nowcast | as of 9:45 am CST on November 21, 2014

At 9:45 am...National Weather Service Doppler radars detected scattered rain showers across portions of far northeast Oklahoma. The showers which had been impacting far northwest Arkansas have dissipated. The ongoing activity continues to lift northeast at around 30 miles per hour...and were confined to locations mainly north of Interstate 44. Through 11:00 am...scattered light to occasional moderate shower are likely for areas of far northeast Oklahoma...generally along and north of a Talala to Fairland line...and east of Highway 75. Measurable rainfall of up to one tenth of an inch will remain common...with isolated locally higher amounts to around one quarter inch possible. There will remain the potential for additional today further to the south...near a frontal boundary which will be gradually lifting northward.

×

10-Day Weather Forecast

Almanac

Astronomy

Nov. 21, 2014 Rise Set
Actual Time
Civil Twilight
Nautical Twilight
Astronomical Twilight
Moon
Length of Visible Light
Length of Day
Tomorrow will be .
, % of the Moon is Illuminated

Today's Extremes

State Highs State Lows

Community

WunderPhotos

Upload Photos

1,772,682 photos uploaded!

WunderBlogs® & News

Nearby

Air Quality

  Air Quality AQ Index Pollutant
Not available.

Snow Depth

Station Depth Elevation

Earthquake Activity

City Distance Mag. Time & Date
Minimum magnitude displayed is 2.5.

Coastal Water Temperatures

Place Temperature

Nearby Weather Stations